createdAt,value
2024-04-04T04:15:05.620Z,0.00
2024-04-04T04:16:05.754Z,0.00
2024-04-04T04:17:05.890Z,0.00
2024-04-04T04:18:05.985Z,0.00
2024-04-04T04:19:06.348Z,0.00
2024-04-04T04:20:06.289Z,0.00
2024-04-04T04:21:06.391Z,0.00
2024-04-04T04:22:06.518Z,0.00
2024-04-04T04:23:06.634Z,0.00
2024-04-04T04:24:06.774Z,0.00
2024-04-04T04:25:07.048Z,0.00
2024-04-04T04:26:07.027Z,0.00
2024-04-04T04:27:07.160Z,0.00
2024-04-04T04:28:07.219Z,0.00
2024-04-04T04:29:07.335Z,0.00
2024-04-04T04:30:07.469Z,0.00
2024-04-04T04:31:07.571Z,0.00
2024-04-04T04:32:08.669Z,0.00
2024-04-04T04:33:07.826Z,0.00
2024-04-04T04:34:07.994Z,0.00
2024-04-04T04:35:08.226Z,0.00
2024-04-04T04:36:08.203Z,0.00
2024-04-04T04:37:08.257Z,0.00
2024-04-04T04:38:08.442Z,0.00
2024-04-04T04:39:08.558Z,0.00
2024-04-04T04:40:08.670Z,0.00
2024-04-04T04:41:09.712Z,0.00
2024-04-04T04:42:08.930Z,0.00
2024-04-04T04:43:09.015Z,0.00
2024-04-04T04:44:09.252Z,0.00
2024-04-04T04:45:09.347Z,0.00
2024-04-04T04:46:09.483Z,0.00
2024-04-04T04:47:09.612Z,0.00
2024-04-04T04:48:09.730Z,0.00
2024-04-04T04:49:09.799Z,0.00
2024-04-04T04:50:10.005Z,0.00
2024-04-04T04:51:10.067Z,0.00
2024-04-04T04:52:10.206Z,0.00
2024-04-04T04:53:10.358Z,0.00
2024-04-04T04:54:10.509Z,0.00
2024-04-04T04:55:10.606Z,0.00
2024-04-04T04:56:10.745Z,0.00
2024-04-04T04:57:10.893Z,0.00
2024-04-04T04:58:11.031Z,0.00
2024-04-04T04:59:11.157Z,0.00
2024-04-04T05:00:11.310Z,0.00
2024-04-04T05:01:11.427Z,0.00
2024-04-04T05:02:11.580Z,0.00
2024-04-04T05:03:11.706Z,0.00
2024-04-04T05:04:11.848Z,0.00
2024-04-04T05:05:11.980Z,0.00
2024-04-04T05:06:12.124Z,0.00
2024-04-04T05:07:12.282Z,0.00
2024-04-04T05:08:12.428Z,0.00
2024-04-04T05:09:12.559Z,0.00
2024-04-04T05:10:12.706Z,0.00
2024-04-04T05:11:12.850Z,0.00
2024-04-04T05:12:12.998Z,0.00
2024-04-04T05:13:13.159Z,0.00
2024-04-04T05:14:13.272Z,0.00
2024-04-04T05:15:13.415Z,0.00
2024-04-04T05:16:13.564Z,0.00
2024-04-04T05:17:13.689Z,0.00
2024-04-04T05:18:13.819Z,0.00
2024-04-04T05:19:13.967Z,0.00
2024-04-04T05:20:14.097Z,0.00
2024-04-04T05:21:14.209Z,0.00
2024-04-04T05:22:14.337Z,0.00
2024-04-04T05:23:15.431Z,0.00
2024-04-04T05:24:14.647Z,0.00
2024-04-04T05:25:14.729Z,0.00
2024-04-04T05:26:14.865Z,0.00
2024-04-04T05:27:14.997Z,0.00
2024-04-04T05:28:15.137Z,0.00
2024-04-04T05:29:15.492Z,0.00
2024-04-04T05:30:15.550Z,0.00
2024-04-04T05:31:15.566Z,0.00
2024-04-04T05:32:16.149Z,0.00
2024-04-04T05:33:15.804Z,0.00
2024-04-04T05:34:15.927Z,0.00
2024-04-04T05:35:16.131Z,0.00
2024-04-04T05:36:16.151Z,0.00
2024-04-04T05:37:16.297Z,0.00
2024-04-04T05:38:16.458Z,0.00
2024-04-04T05:39:16.727Z,0.00
2024-04-04T05:40:16.695Z,0.00
2024-04-04T05:41:16.877Z,0.00
2024-04-04T05:42:16.954Z,0.00
2024-04-04T05:43:18.074Z,0.00
2024-04-04T05:44:17.227Z,0.00
2024-04-04T05:45:17.334Z,0.00
2024-04-04T05:46:17.445Z,0.00
2024-04-04T05:47:17.576Z,0.00
2024-04-04T05:48:17.701Z,0.00
2024-04-04T05:49:18.816Z,0.00
2024-04-04T05:50:18.022Z,0.00
2024-04-04T05:51:18.373Z,0.00
2024-04-04T05:52:18.473Z,0.00
2024-04-04T05:53:20.023Z,0.00
2024-04-04T05:54:19.668Z,0.00
2024-04-04T05:56:34.682Z,0.00
2024-04-04T06:00:22.207Z,0.00
2024-04-04T06:01:22.510Z,0.00
2024-04-04T06:03:38.268Z,0.00
2024-04-04T06:04:46.388Z,0.00
2024-04-04T06:05:39.447Z,0.00
2024-04-04T06:06:38.548Z,0.00
2024-04-04T06:07:38.634Z,0.00
2024-04-04T06:08:39.706Z,0.00
2024-04-04T06:09:39.903Z,0.00
2024-04-04T06:10:39.159Z,0.00
2024-04-04T06:11:39.141Z,0.00
2024-04-04T06:12:39.962Z,0.00
2024-04-04T06:13:41.657Z,5.62
2024-04-04T06:14:39.739Z,5.62
2024-04-04T06:15:42.142Z,5.62
2024-04-04T06:16:40.727Z,5.62
2024-04-04T06:17:39.923Z,5.62
2024-04-04T06:18:41.005Z,5.62
2024-04-04T06:19:41.567Z,5.62
2024-04-04T06:20:41.410Z,5.62
2024-04-04T06:21:42.880Z,5.62
2024-04-04T06:22:40.691Z,5.62
2024-04-04T06:23:40.659Z,5.62
2024-04-04T06:24:40.768Z,5.62
2024-04-04T06:25:40.943Z,0.00
2024-04-04T06:26:42.032Z,5.62
2024-04-04T06:27:41.245Z,5.62
2024-04-04T06:28:42.319Z,5.62
2024-04-04T06:29:42.471Z,5.62
2024-04-04T06:30:41.643Z,5.62
2024-04-04T06:31:41.845Z,5.62
2024-04-04T06:32:42.021Z,5.62
2024-04-04T06:33:43.023Z,5.62
2024-04-04T06:34:42.184Z,5.62
2024-04-04T06:35:43.387Z,5.62
2024-04-04T06:36:43.354Z,5.62
2024-04-04T06:37:43.637Z,5.62
2024-04-04T06:38:42.779Z,5.62
2024-04-04T06:39:42.933Z,5.62
2024-04-04T06:40:42.970Z,5.62
2024-04-04T06:41:43.053Z,5.62
2024-04-04T06:42:43.197Z,5.62
2024-04-04T06:43:43.313Z,5.62
2024-04-04T06:44:43.437Z,11.25
2024-04-04T06:45:43.659Z,11.25
2024-04-04T06:46:44.697Z,11.25
2024-04-04T06:47:43.852Z,11.25
2024-04-04T06:48:43.991Z,11.25
2024-04-04T06:49:44.073Z,11.25
2024-04-04T06:50:44.250Z,11.25
2024-04-04T06:51:45.984Z,11.25
2024-04-04T06:52:44.437Z,11.25
2024-04-04T06:53:45.505Z,5.62
2024-04-04T06:54:44.672Z,5.62
2024-04-04T06:55:45.765Z,5.62
2024-04-04T06:56:45.943Z,5.62
2024-04-04T06:57:45.155Z,5.62
2024-04-04T06:58:46.116Z,5.62
2024-04-04T06:59:45.417Z,5.62
2024-04-04T07:00:45.449Z,5.62
2024-04-04T07:01:46.540Z,5.62
2024-04-04T07:02:46.719Z,5.62
2024-04-04T07:03:45.871Z,11.25
2024-04-04T07:04:45.947Z,5.62
2024-04-04T07:05:46.156Z,11.25
2024-04-04T07:06:46.353Z,11.25
2024-04-04T07:07:46.563Z,11.25
2024-04-04T07:08:47.520Z,5.62
2024-04-04T07:09:46.909Z,5.62
2024-04-04T07:10:47.906Z,5.62
2024-04-04T07:11:47.888Z,5.62
2024-04-04T07:12:47.032Z,5.62
2024-04-04T07:13:48.131Z,5.62
2024-04-04T07:14:47.288Z,5.62
2024-04-04T07:15:47.671Z,11.25
2024-04-04T07:16:48.621Z,11.25
2024-04-04T07:17:49.555Z,11.25
2024-04-04T07:18:48.769Z,16.88
2024-04-04T07:19:48.057Z,11.25
2024-04-04T07:20:48.050Z,11.25
2024-04-04T07:21:49.209Z,16.88
2024-04-04T07:22:49.307Z,16.88
2024-04-04T07:23:48.449Z,16.88
2024-04-04T07:24:49.739Z,16.88
2024-04-04T07:25:49.792Z,16.88
2024-04-04T07:26:49.242Z,11.25
2024-04-04T07:27:49.156Z,11.25
2024-04-04T07:28:49.163Z,11.25
2024-04-04T07:29:50.248Z,11.25
2024-04-04T07:30:49.516Z,11.25
2024-04-04T07:31:50.883Z,11.25
2024-04-04T07:32:50.369Z,11.25
2024-04-04T07:33:49.857Z,16.88
2024-04-04T07:34:50.156Z,16.88
2024-04-04T07:35:50.197Z,16.88
2024-04-04T07:36:50.128Z,16.88
2024-04-04T07:37:50.291Z,16.88
2024-04-04T07:38:50.366Z,16.88
2024-04-04T07:39:50.753Z,11.25
2024-04-04T07:40:51.013Z,11.25
2024-04-04T07:43:07.494Z,16.88
2024-04-04T07:44:07.482Z,16.88
2024-04-04T07:45:18.357Z,16.88
2024-04-04T07:46:08.035Z,11.25
2024-04-04T07:47:07.932Z,11.25
2024-04-04T07:48:09.668Z,11.25
2024-04-04T07:49:08.230Z,16.88
2024-04-04T07:50:08.279Z,16.88
2024-04-04T07:51:08.446Z,16.88
2024-04-04T07:52:08.588Z,16.88
2024-04-04T07:53:09.592Z,16.88
2024-04-04T07:54:08.873Z,16.88
2024-04-04T07:55:09.886Z,16.88
2024-04-04T07:56:09.278Z,16.88
2024-04-04T07:57:13.311Z,11.25
2024-04-04T07:58:09.588Z,11.25
2024-04-04T07:59:09.599Z,11.25
2024-04-04T08:00:09.778Z,16.88
2024-04-04T08:01:11.370Z,16.88
2024-04-04T08:02:10.850Z,11.25
2024-04-04T08:03:10.739Z,16.88
2024-04-04T08:04:11.152Z,11.25
2024-04-04T08:05:11.296Z,11.25
2024-04-04T08:06:10.328Z,11.25
2024-04-04T08:07:10.630Z,11.25
2024-04-04T08:08:11.666Z,11.25
2024-04-04T08:09:10.878Z,11.25
2024-04-04T08:10:11.179Z,5.62
2024-04-04T08:11:11.149Z,11.25
2024-04-04T08:12:12.140Z,11.25
2024-04-04T08:13:12.202Z,11.25
2024-04-04T08:14:11.514Z,11.25
2024-04-04T08:15:12.524Z,5.62
2024-04-04T08:16:11.707Z,5.62
2024-04-04T08:17:11.863Z,5.62
2024-04-04T08:18:11.948Z,5.62
2024-04-04T08:19:12.122Z,11.25
2024-04-04T08:20:13.127Z,11.25
2024-04-04T08:21:13.254Z,11.25
2024-04-04T08:22:13.359Z,11.25
2024-04-04T08:23:12.556Z,11.25
2024-04-04T08:24:13.899Z,11.25
2024-04-04T08:25:15.314Z,11.25
2024-04-04T08:26:15.227Z,16.88
2024-04-04T08:27:13.270Z,16.88
2024-04-04T08:28:14.162Z,16.88
2024-04-04T08:29:14.505Z,16.88
2024-04-04T08:30:16.949Z,16.88
2024-04-04T08:31:14.638Z,22.50
2024-04-04T08:32:13.842Z,22.50
2024-04-04T08:33:14.174Z,22.50
2024-04-04T08:34:14.102Z,22.50
2024-04-04T08:35:15.136Z,16.88
2024-04-04T08:36:14.501Z,22.50
2024-04-04T08:37:15.784Z,22.50
2024-04-04T08:38:16.862Z,22.50
2024-04-04T08:39:14.674Z,22.50
2024-04-04T08:40:16.049Z,22.50
2024-04-04T08:41:15.625Z,22.50
2024-04-04T08:42:15.074Z,16.88
2024-04-04T08:43:15.497Z,22.50
2024-04-04T08:44:16.346Z,22.50
2024-04-04T08:45:17.023Z,16.88
2024-04-04T08:46:16.514Z,11.25
2024-04-04T08:47:16.346Z,16.88
2024-04-04T08:48:16.764Z,16.88
2024-04-04T08:49:16.562Z,16.88
2024-04-04T08:50:17.685Z,16.88
2024-04-04T08:51:16.367Z,11.25
2024-04-04T08:52:17.095Z,11.25
2024-04-04T08:53:16.380Z,11.25
2024-04-04T08:54:16.814Z,16.88
2024-04-04T08:55:17.235Z,16.88
2024-04-04T08:56:17.724Z,11.25
2024-04-04T08:57:19.083Z,5.62
2024-04-04T08:58:17.240Z,5.62
2024-04-04T08:59:17.228Z,11.25
2024-04-04T09:00:18.786Z,16.88
2024-04-04T09:01:27.944Z,16.88
2024-04-04T09:02:18.494Z,11.25
2024-04-04T09:03:17.877Z,11.25
2024-04-04T09:04:17.975Z,5.62
2024-04-04T09:05:17.869Z,5.62
2024-04-04T09:06:18.929Z,5.62
2024-04-04T09:07:18.130Z,5.62
2024-04-04T09:08:19.149Z,5.62
2024-04-04T09:09:18.539Z,5.62
2024-04-04T09:10:19.693Z,11.25
2024-04-04T09:11:20.202Z,11.25
2024-04-04T09:12:18.995Z,11.25
2024-04-04T09:13:19.173Z,11.25
2024-04-04T09:14:20.207Z,11.25
2024-04-04T09:15:20.196Z,5.62
2024-04-04T09:16:20.769Z,5.62
2024-04-04T09:17:21.273Z,5.62
2024-04-04T09:18:20.557Z,0.00
2024-04-04T09:19:20.543Z,0.00
2024-04-04T09:21:36.630Z,5.62
2024-04-04T09:22:36.853Z,5.62
2024-04-04T09:23:35.864Z,5.62
2024-04-04T09:24:41.935Z,11.25
2024-04-04T09:25:38.059Z,11.25
2024-04-04T09:26:36.575Z,11.25
2024-04-04T09:27:36.355Z,11.25
2024-04-04T09:28:36.569Z,11.25
2024-04-04T09:29:36.696Z,11.25
2024-04-04T09:30:36.622Z,11.25
2024-04-04T09:31:36.715Z,5.62
2024-04-04T09:32:36.941Z,5.62
2024-04-04T09:33:36.951Z,11.25
2024-04-04T09:34:37.077Z,11.25
2024-04-04T09:35:37.231Z,16.88
2024-04-04T09:36:38.770Z,16.88
2024-04-04T09:37:37.579Z,22.50
2024-04-04T09:38:37.645Z,16.88
2024-04-04T09:39:38.705Z,16.88
2024-04-04T09:40:37.898Z,16.88
2024-04-04T09:41:39.144Z,16.88
2024-04-04T09:42:38.189Z,16.88
2024-04-04T09:43:38.442Z,16.88
2024-04-04T09:44:38.533Z,16.88
2024-04-04T09:45:38.645Z,16.88
2024-04-04T09:46:38.959Z,11.25
2024-04-04T09:47:38.954Z,11.25
2024-04-04T09:48:39.090Z,11.25
2024-04-04T09:49:40.847Z,16.88
2024-04-04T09:50:39.405Z,16.88
2024-04-04T09:51:39.372Z,16.88
2024-04-04T09:52:39.765Z,16.88
2024-04-04T09:53:39.905Z,16.88
2024-04-04T09:54:39.907Z,16.88
2024-04-04T09:55:40.063Z,22.50
2024-04-04T09:56:40.951Z,22.50
2024-04-04T09:57:41.208Z,28.12
2024-04-04T09:58:40.482Z,28.12
2024-04-04T09:59:41.487Z,28.12
2024-04-04T10:00:40.713Z,33.75
2024-04-04T10:01:41.571Z,39.38
2024-04-04T10:02:40.797Z,39.38
2024-04-04T10:03:42.712Z,39.38
2024-04-04T10:04:41.860Z,45.00
2024-04-04T10:05:43.781Z,45.00
2024-04-04T10:06:41.349Z,33.75
2024-04-04T10:07:42.091Z,28.12
2024-04-04T10:08:42.702Z,22.50
2024-04-04T10:09:42.600Z,22.50
2024-04-04T10:10:42.731Z,28.12
2024-04-04T10:11:42.900Z,45.00
2024-04-04T10:12:42.903Z,45.00
2024-04-04T10:13:42.540Z,39.38
2024-04-04T10:14:42.179Z,45.00
2024-04-04T10:15:42.334Z,45.00
2024-04-04T10:16:44.088Z,39.38
2024-04-04T10:17:44.472Z,33.75
2024-04-04T10:29:33.823Z,16.88
2024-04-04T10:30:29.824Z,22.50
2024-04-04T10:31:28.899Z,22.50
2024-04-04T10:32:29.102Z,33.75
2024-04-04T10:33:29.173Z,39.38
2024-04-04T10:34:29.012Z,33.75
2024-04-04T10:35:30.194Z,56.25
2024-04-04T10:36:30.398Z,56.25
2024-04-04T10:37:29.609Z,56.25
2024-04-04T10:38:30.931Z,56.25
2024-04-04T10:39:30.221Z,45.00
2024-04-04T10:40:30.739Z,39.38
2024-04-04T10:41:30.135Z,33.75
2024-04-04T10:42:30.336Z,33.75
2024-04-04T10:43:31.168Z,45.00
2024-04-04T10:44:31.176Z,50.62
2024-04-04T10:45:31.356Z,45.00
2024-04-04T10:46:30.668Z,28.12
2024-04-04T10:47:30.797Z,28.12
2024-04-04T10:48:30.820Z,28.12
2024-04-04T10:49:31.016Z,39.38
2024-04-04T10:50:31.176Z,33.75
2024-04-04T10:51:32.444Z,33.75
2024-04-04T10:52:33.752Z,22.50
2024-04-04T10:53:32.139Z,22.50
2024-04-04T10:54:31.725Z,16.88
2024-04-04T10:55:32.748Z,11.25
2024-04-04T10:56:31.950Z,16.88
2024-04-04T10:57:32.094Z,16.88
2024-04-04T10:58:32.173Z,16.88
2024-04-04T10:59:33.854Z,11.25
2024-04-04T11:00:33.249Z,11.25
2024-04-04T11:01:32.469Z,11.25
2024-04-04T11:02:33.711Z,11.25
2024-04-04T11:03:32.913Z,16.88
2024-04-04T11:04:32.970Z,22.50
2024-04-04T11:05:33.211Z,22.50
2024-04-04T11:06:36.736Z,33.75
2024-04-04T11:07:34.289Z,33.75
2024-04-04T11:08:33.474Z,28.12
2024-04-04T11:09:34.488Z,28.12
2024-04-04T11:10:33.793Z,28.12
2024-04-04T11:11:33.761Z,22.50
2024-04-04T11:12:33.913Z,28.12
2024-04-04T11:13:34.136Z,28.12
2024-04-04T11:14:34.489Z,33.75
2024-04-04T11:15:35.862Z,33.75
2024-04-04T11:16:34.625Z,33.75
2024-04-04T11:17:34.788Z,39.38
2024-04-04T11:18:35.062Z,45.00
2024-04-04T11:19:35.159Z,56.25
2024-04-04T11:20:35.469Z,56.25
2024-04-04T11:21:35.177Z,78.75
2024-04-04T11:22:35.521Z,61.88
2024-04-04T11:23:36.445Z,56.25
2024-04-04T11:24:35.810Z,50.62
2024-04-04T11:25:36.543Z,39.38
2024-04-04T11:26:35.821Z,33.75
2024-04-04T11:27:35.950Z,22.50
2024-04-04T11:28:49.485Z,22.50
2024-04-04T11:29:37.379Z,33.75
2024-04-04T11:30:36.328Z,45.00
2024-04-04T11:31:36.543Z,39.38
2024-04-04T11:32:36.945Z,33.75
2024-04-04T11:33:37.604Z,28.12
2024-04-04T11:34:37.627Z,39.38
2024-04-04T11:35:37.754Z,39.38
2024-04-04T11:36:38.072Z,33.75
2024-04-04T11:37:37.341Z,61.88
2024-04-04T11:38:38.281Z,45.00
2024-04-04T11:39:38.140Z,33.75
2024-04-04T11:40:38.585Z,39.38
2024-04-04T11:41:37.662Z,39.38
2024-04-04T11:42:38.065Z,33.75
2024-04-04T11:43:38.785Z,39.38
2024-04-04T11:44:38.525Z,28.12
2024-04-04T11:45:38.294Z,28.12
2024-04-04T11:46:38.444Z,73.12
2024-04-04T11:47:39.128Z,73.12
2024-04-04T11:48:38.795Z,61.88
2024-04-04T11:49:38.811Z,50.62
2024-04-04T11:50:40.084Z,39.38
2024-04-04T11:51:39.067Z,28.12
2024-04-04T11:52:39.046Z,22.50
2024-04-04T11:53:39.286Z,22.50
2024-04-04T11:54:39.346Z,28.12
2024-04-04T11:55:39.511Z,28.12
2024-04-04T11:56:39.930Z,22.50
2024-04-04T11:57:41.967Z,11.25
2024-04-04T11:58:40.749Z,11.25
2024-04-04T11:59:42.440Z,50.62
2024-04-04T12:00:41.153Z,78.75
2024-04-04T12:01:41.168Z,84.38
2024-04-04T12:02:41.232Z,84.38
2024-04-04T12:03:42.207Z,78.75
2024-04-04T12:04:40.711Z,50.62
2024-04-04T12:05:40.883Z,50.62
2024-04-04T12:06:41.821Z,73.12
2024-04-04T12:07:41.954Z,50.62
2024-04-04T12:08:41.436Z,56.25
2024-04-04T12:11:57.955Z,22.50
2024-04-04T12:12:59.049Z,28.12
2024-04-04T12:13:59.183Z,16.88
2024-04-04T12:14:58.408Z,16.88
2024-04-04T12:15:58.575Z,11.25
2024-04-04T12:16:58.776Z,16.88
2024-04-04T12:17:59.203Z,16.88
2024-04-04T12:18:59.019Z,16.88
2024-04-04T12:19:59.040Z,11.25
2024-04-04T12:21:00.144Z,5.62
2024-04-04T12:22:00.276Z,5.62
2024-04-04T12:23:00.399Z,0.00
2024-04-04T12:24:07.994Z,0.00
2024-04-04T12:25:00.720Z,5.62
2024-04-04T12:26:00.676Z,5.62
2024-04-04T12:26:59.976Z,11.25
2024-04-04T12:28:00.963Z,11.25
2024-04-04T12:29:02.334Z,33.75
2024-04-04T12:30:01.252Z,28.12
2024-04-04T12:31:01.419Z,16.88
2024-04-04T12:32:00.696Z,33.75
2024-04-04T12:33:01.904Z,50.62
2024-04-04T12:34:00.738Z,61.88
2024-04-04T12:35:02.112Z,78.75
2024-04-04T12:36:02.219Z,78.75
2024-04-04T12:37:02.084Z,118.12
2024-04-04T12:38:01.399Z,118.12
2024-04-04T12:39:01.485Z,78.75
2024-04-04T12:40:02.420Z,112.50
2024-04-04T12:41:02.810Z,146.25
2024-04-04T12:42:02.775Z,146.25
2024-04-04T12:43:03.148Z,129.38
2024-04-04T12:44:02.044Z,84.38
2024-04-04T12:45:02.193Z,61.88
2024-04-04T12:46:02.490Z,22.50
2024-04-04T12:47:03.467Z,16.88
2024-04-04T12:48:02.535Z,16.88
2024-04-04T12:49:03.525Z,11.25
2024-04-04T12:50:02.696Z,11.25
2024-04-04T12:51:03.836Z,16.88
2024-04-04T12:52:03.979Z,16.88
2024-04-04T12:53:03.176Z,11.25
2024-04-04T12:54:04.952Z,33.75
2024-04-04T12:55:04.502Z,84.38
2024-04-04T12:56:03.913Z,168.75
2024-04-04T12:57:04.609Z,101.25
2024-04-04T12:58:03.814Z,101.25
2024-04-04T12:59:04.619Z,241.88
2024-04-04T13:00:04.427Z,309.38
2024-04-04T13:01:04.292Z,517.50
2024-04-04T13:02:05.073Z,607.50
2024-04-04T13:03:05.836Z,511.88
2024-04-04T13:04:04.582Z,337.50
2024-04-04T13:05:04.747Z,281.25
2024-04-04T13:06:05.767Z,360.00
2024-04-04T13:07:05.904Z,298.12
2024-04-04T13:08:06.100Z,421.88
2024-04-04T13:09:06.020Z,303.75
2024-04-04T13:10:07.771Z,208.12
2024-04-04T13:11:05.528Z,225.00
2024-04-04T13:12:05.690Z,517.50
2024-04-04T13:13:06.531Z,742.50
2024-04-04T13:14:07.358Z,337.50
2024-04-04T13:15:06.943Z,855.00
2024-04-04T13:16:06.080Z,534.38
2024-04-04T13:17:06.968Z,331.88
2024-04-04T13:18:07.361Z,585.00
2024-04-04T13:19:08.881Z,776.25
2024-04-04T13:20:07.578Z,860.62
2024-04-04T13:21:06.846Z,990.00
2024-04-04T13:22:08.819Z,922.50
2024-04-04T13:23:07.114Z,517.50
2024-04-04T13:24:08.240Z,675.00
2024-04-04T13:25:09.755Z,360.00
2024-04-04T13:26:11.441Z,466.88
2024-04-04T13:27:08.697Z,534.38
2024-04-04T13:28:09.504Z,748.12
2024-04-04T13:29:08.096Z,720.00
2024-04-04T13:30:07.980Z,556.88
2024-04-04T13:31:11.885Z,635.62
2024-04-04T13:32:08.593Z,478.12
2024-04-04T13:33:08.330Z,123.75
2024-04-04T13:34:09.518Z,146.25
2024-04-04T13:35:08.618Z,146.25
2024-04-04T13:36:08.943Z,123.75
2024-04-04T13:37:10.078Z,315.00
2024-04-04T13:38:11.418Z,388.12
2024-04-04T13:39:10.042Z,315.00
2024-04-04T13:40:11.007Z,337.50
2024-04-04T13:41:11.147Z,140.62
2024-04-04T13:42:11.772Z,213.75
2024-04-04T13:43:12.090Z,163.12
2024-04-04T13:44:11.308Z,180.00
2024-04-04T13:45:10.186Z,213.75
2024-04-04T13:46:10.153Z,208.12
2024-04-04T13:47:10.771Z,236.25
2024-04-04T13:49:25.499Z,0.00
2024-04-04T13:50:25.394Z,0.00
2024-04-04T13:51:25.314Z,0.00
2024-04-04T13:52:25.331Z,0.00
2024-04-04T13:53:25.287Z,0.00
2024-04-04T13:54:25.444Z,0.00
2024-04-04T13:55:25.416Z,0.00
2024-04-04T13:56:25.384Z,0.00
2024-04-04T13:57:25.371Z,0.00
2024-04-04T13:58:25.368Z,0.00
2024-04-04T13:59:25.483Z,0.00
2024-04-04T14:00:25.353Z,0.00
2024-04-04T14:01:25.343Z,0.00
2024-04-04T14:02:25.357Z,0.00
2024-04-04T14:03:25.356Z,0.00
2024-04-04T14:04:25.331Z,0.00
2024-04-04T14:05:25.366Z,0.00
2024-04-04T14:06:25.360Z,0.00
2024-04-04T14:07:25.580Z,0.00
2024-04-04T14:08:25.353Z,0.00
2024-04-04T14:09:25.404Z,0.00
2024-04-04T14:10:25.392Z,0.00
2024-04-04T14:11:25.408Z,0.00
2024-04-04T14:12:25.373Z,0.00
2024-04-04T14:13:25.378Z,0.00
2024-04-04T14:14:25.554Z,0.00
2024-04-04T14:15:25.424Z,0.00
2024-04-04T14:16:25.429Z,0.00
2024-04-04T14:17:25.494Z,0.00
2024-04-04T14:18:42.914Z,0.00
2024-04-04T14:19:26.431Z,0.00
2024-04-04T14:20:25.473Z,0.00
2024-04-04T14:21:25.444Z,0.00
2024-04-04T14:22:25.496Z,0.00
2024-04-04T14:23:25.460Z,0.00
2024-04-04T14:24:25.439Z,0.00
2024-04-04T14:25:25.616Z,0.00
2024-04-04T14:26:25.478Z,0.00
2024-04-04T14:27:25.528Z,0.00
2024-04-04T14:28:25.526Z,0.00
2024-04-04T14:29:25.579Z,0.00
2024-04-04T14:30:25.538Z,0.00
2024-04-04T14:31:25.567Z,0.00
2024-04-04T14:32:25.521Z,0.00
2024-04-04T14:33:25.536Z,0.00
2024-04-04T14:34:25.531Z,0.00
2024-04-04T14:35:25.563Z,0.00
2024-04-04T14:36:25.593Z,0.00
2024-04-04T14:37:25.568Z,0.00
2024-04-04T14:38:26.535Z,0.00
2024-04-04T14:39:25.633Z,0.00
2024-04-04T14:40:25.620Z,0.00
2024-04-04T14:41:25.602Z,0.00
2024-04-04T14:42:25.559Z,0.00
2024-04-04T14:43:25.613Z,0.00
2024-04-04T14:44:25.577Z,0.00
2024-04-04T14:45:25.624Z,0.00
2024-04-04T14:46:25.594Z,0.00
2024-04-04T14:47:25.604Z,0.00
2024-04-04T14:48:25.587Z,0.00
2024-04-04T14:49:25.605Z,0.00
2024-04-04T14:50:25.663Z,0.00
2024-04-04T14:51:25.629Z,0.00
2024-04-04T14:52:25.599Z,0.00
2024-04-04T14:53:25.626Z,0.00
2024-04-04T14:54:25.655Z,0.00
2024-04-04T14:55:25.667Z,0.00
2024-04-04T14:56:25.666Z,0.00
2024-04-04T14:57:25.654Z,0.00
2024-04-04T14:58:25.651Z,0.00
2024-04-04T14:59:25.691Z,0.00
2024-04-04T15:00:25.690Z,0.00
2024-04-04T15:01:25.831Z,0.00
2024-04-04T15:02:25.756Z,0.00
2024-04-04T15:03:25.718Z,0.00
2024-04-04T15:04:25.749Z,0.00
2024-04-04T15:05:25.687Z,0.00
2024-04-04T15:06:25.714Z,0.00
2024-04-04T15:07:26.026Z,0.00
2024-04-04T15:08:25.705Z,0.00
2024-04-04T15:09:25.746Z,0.00
2024-04-04T15:10:25.821Z,0.00
2024-04-04T15:11:25.724Z,0.00
2024-04-04T15:12:25.703Z,0.00
2024-04-04T15:13:25.778Z,0.00
2024-04-04T15:14:25.772Z,0.00
2024-04-04T15:15:25.736Z,0.00
2024-04-04T15:16:25.736Z,0.00
2024-04-04T15:17:25.766Z,0.00
2024-04-04T15:18:25.762Z,0.00
2024-04-04T15:19:26.724Z,0.00
2024-04-04T15:20:25.757Z,0.00
2024-04-04T15:21:25.760Z,0.00
2024-04-04T15:22:25.784Z,0.00
2024-04-04T15:23:25.803Z,0.00
2024-04-04T15:24:25.788Z,0.00
2024-04-04T15:25:26.455Z,0.00
2024-04-04T15:26:25.810Z,0.00
2024-04-04T15:27:25.808Z,0.00
2024-04-04T15:28:25.840Z,0.00
2024-04-04T15:29:25.847Z,0.00
2024-04-04T15:30:25.820Z,0.00
2024-04-04T15:31:26.403Z,0.00
2024-04-04T15:32:25.828Z,0.00
2024-04-04T15:33:25.847Z,0.00
2024-04-04T15:34:25.880Z,0.00
2024-04-04T15:35:25.860Z,0.00
2024-04-04T15:36:25.881Z,0.00
2024-04-04T15:37:26.865Z,0.00
2024-04-04T15:38:25.868Z,0.00
2024-04-04T15:39:25.880Z,0.00
2024-04-04T15:40:25.898Z,0.00
2024-04-04T15:41:25.887Z,0.00
2024-04-04T15:42:25.896Z,0.00
2024-04-04T15:43:25.930Z,0.00
2024-04-04T15:44:25.918Z,0.00
2024-04-04T15:45:25.922Z,0.00
2024-04-04T15:46:25.962Z,0.00
2024-04-04T15:47:25.929Z,0.00
2024-04-04T15:48:25.932Z,0.00
2024-04-04T15:49:27.361Z,0.00
2024-04-04T15:50:25.968Z,0.00
2024-04-04T15:51:25.973Z,0.00
2024-04-04T15:52:25.980Z,0.00
2024-04-04T15:53:25.967Z,0.00
2024-04-04T15:54:25.985Z,0.00
2024-04-04T15:55:26.035Z,0.00
2024-04-04T15:56:25.978Z,0.00
2024-04-04T15:57:25.983Z,0.00
2024-04-04T15:58:25.985Z,0.00
2024-04-04T15:59:26.015Z,0.00
2024-04-04T16:00:25.985Z,0.00
2024-04-04T16:01:25.998Z,0.00
2024-04-04T16:02:25.998Z,0.00
2024-04-04T16:03:26.014Z,0.00
2024-04-04T16:04:26.022Z,0.00
2024-04-04T16:05:26.017Z,0.00
2024-04-04T16:06:26.031Z,0.00
2024-04-04T16:07:27.242Z,0.00
2024-04-04T16:08:26.045Z,0.00
2024-04-04T16:09:27.006Z,0.00
2024-04-04T16:10:26.101Z,0.00
2024-04-04T16:11:26.064Z,0.00
2024-04-04T16:12:26.058Z,0.00
2024-04-04T16:13:26.116Z,0.00
2024-04-04T16:14:26.077Z,0.00
2024-04-04T16:15:26.091Z,0.00
2024-04-04T16:16:26.116Z,0.00
2024-04-04T16:28:35.212Z,11.25
2024-04-04T16:29:48.894Z,11.25
2024-04-04T16:30:35.395Z,11.25
2024-04-04T16:31:35.571Z,5.62
2024-04-04T16:32:35.705Z,5.62
2024-04-04T16:33:35.832Z,5.62
2024-04-04T16:34:35.961Z,0.00
2024-04-04T16:35:36.099Z,0.00
2024-04-04T16:36:36.226Z,5.62
2024-04-04T16:37:36.360Z,5.62
2024-04-04T16:38:36.484Z,5.62
2024-04-04T16:39:36.614Z,5.62
2024-04-04T16:40:36.760Z,5.62
2024-04-04T16:41:36.878Z,0.00
2024-04-04T16:42:37.005Z,5.62
2024-04-04T16:43:37.112Z,5.62
2024-04-04T16:44:37.245Z,11.25
2024-04-04T16:45:37.388Z,16.88
2024-04-04T16:46:37.529Z,11.25
2024-04-04T16:47:37.633Z,11.25
2024-04-04T16:48:37.804Z,11.25
2024-04-04T16:49:37.872Z,5.62
2024-04-04T16:50:37.993Z,11.25
2024-04-04T16:51:38.131Z,11.25
2024-04-04T16:52:38.254Z,11.25
2024-04-04T16:53:38.402Z,5.62
2024-04-04T16:54:39.530Z,5.62
2024-04-04T16:55:38.639Z,5.62
2024-04-04T16:56:38.778Z,5.62
2024-04-04T16:57:38.904Z,5.62
2024-04-04T16:58:39.040Z,5.62
2024-04-04T16:59:39.179Z,5.62
2024-04-04T17:00:39.326Z,5.62
2024-04-04T17:01:39.496Z,11.25
2024-04-04T17:02:39.608Z,5.62
2024-04-04T17:03:39.744Z,5.62
2024-04-04T17:04:39.870Z,5.62
2024-04-04T17:05:39.995Z,5.62
2024-04-04T17:06:40.132Z,5.62
2024-04-04T17:07:40.300Z,5.62
2024-04-04T17:08:40.393Z,5.62
2024-04-04T17:09:40.538Z,5.62
2024-04-04T17:10:40.668Z,5.62
2024-04-04T17:11:40.787Z,5.62
2024-04-04T17:12:40.923Z,5.62
2024-04-04T17:13:41.037Z,5.62
2024-04-04T17:14:41.162Z,5.62
2024-04-04T17:15:42.281Z,5.62
2024-04-04T17:16:41.434Z,5.62
2024-04-04T17:17:41.598Z,5.62
2024-04-04T17:18:41.730Z,5.62
2024-04-04T17:19:41.856Z,5.62
2024-04-04T17:20:41.988Z,5.62
2024-04-04T17:21:42.116Z,5.62
2024-04-04T17:22:42.227Z,5.62
2024-04-04T17:23:42.359Z,5.62
2024-04-04T17:24:42.502Z,5.62
2024-04-04T17:25:42.627Z,0.00
2024-04-04T17:26:42.730Z,0.00
2024-04-04T17:27:42.873Z,0.00
2024-04-04T17:28:42.951Z,0.00
2024-04-04T17:29:43.086Z,0.00
2024-04-04T17:30:43.195Z,0.00
2024-04-04T17:31:43.351Z,0.00
2024-04-04T17:32:43.490Z,0.00
2024-04-04T17:33:43.630Z,0.00
2024-04-04T17:34:43.760Z,0.00
2024-04-04T17:35:43.865Z,0.00
2024-04-04T17:36:44.959Z,0.00
2024-04-04T17:37:44.112Z,0.00
2024-04-04T17:38:44.218Z,0.00
2024-04-04T17:39:44.408Z,0.00
2024-04-04T17:40:44.506Z,0.00
2024-04-04T17:41:44.651Z,0.00
2024-04-04T17:42:44.775Z,0.00
2024-04-04T17:43:44.928Z,0.00
2024-04-04T17:44:45.057Z,0.00
2024-04-04T17:45:45.182Z,0.00
2024-04-04T17:46:45.296Z,0.00
2024-04-04T17:47:45.434Z,0.00
2024-04-04T17:48:45.573Z,0.00
2024-04-04T17:49:45.721Z,0.00
2024-04-04T17:50:45.834Z,0.00
2024-04-04T17:51:45.958Z,0.00
2024-04-04T17:52:46.109Z,0.00
2024-04-04T17:53:46.219Z,0.00